sensor_id;sensor_type;location;lat;lon;timestamp;pressure;altitude;pressure_sealevel;temperature;humidity
63819;BME280;49970;54.976;73.248;2024-01-27T00:00:21;100982.09;;;-14.80;82.13
63819;BME280;49970;54.976;73.248;2024-01-27T00:02:47;101021.84;;;-14.63;82.14
63819;BME280;49970;54.976;73.248;2024-01-27T00:05:14;101014.94;;;-14.65;81.45
63819;BME280;49970;54.976;73.248;2024-01-27T00:07:40;101022.56;;;-14.65;82.25
63819;BME280;49970;54.976;73.248;2024-01-27T00:10:07;101030.19;;;-14.65;81.29
63819;BME280;49970;54.976;73.248;2024-01-27T00:12:33;101015.59;;;-14.69;82.26
63819;BME280;49970;54.976;73.248;2024-01-27T00:14:59;101029.47;;;-14.63;82.33
63819;BME280;49970;54.976;73.248;2024-01-27T00:17:25;101040.22;;;-14.68;81.79
63819;BME280;49970;54.976;73.248;2024-01-27T00:19:54;101028.94;;;-14.75;82.16
63819;BME280;49970;54.976;73.248;2024-01-27T00:22:20;101031.69;;;-14.70;81.84
63819;BME280;49970;54.976;73.248;2024-01-27T00:24:47;101040.41;;;-14.64;82.00
63819;BME280;49970;54.976;73.248;2024-01-27T00:27:13;101047.25;;;-14.63;81.70
63819;BME280;49970;54.976;73.248;2024-01-27T00:29:39;101053.13;;;-14.64;81.33
63819;BME280;49970;54.976;73.248;2024-01-27T00:32:05;101043.44;;;-14.72;82.21
63819;BME280;49970;54.976;73.248;2024-01-27T00:34:32;101066.66;;;-14.65;82.12
63819;BME280;49970;54.976;73.248;2024-01-27T00:36:58;101064.16;;;-14.63;81.35
63819;BME280;49970;54.976;73.248;2024-01-27T00:39:24;101056.53;;;-14.63;81.83
63819;BME280;49970;54.976;73.248;2024-01-27T00:41:54;101057.44;;;-14.63;82.11
63819;BME280;49970;54.976;73.248;2024-01-27T00:44:24;101068.34;;;-14.65;82.30
63819;BME280;49970;54.976;73.248;2024-01-27T00:46:50;101057.84;;;-14.73;81.22
63819;BME280;49970;54.976;73.248;2024-01-27T00:49:17;101058.78;;;-14.71;82.52
63819;BME280;49970;54.976;73.248;2024-01-27T00:51:43;101074.81;;;-14.72;81.65
63819;BME280;49970;54.976;73.248;2024-01-27T00:54:10;101066.28;;;-14.74;81.56
63819;BME280;49970;54.976;73.248;2024-01-27T00:56:36;101058.63;;;-14.74;82.28
63819;BME280;49970;54.976;73.248;2024-01-27T00:59:22;101065.50;;;-14.71;81.76
63819;BME280;49970;54.976;73.248;2024-01-27T01:02:54;101076.44;;;-14.74;82.37
63819;BME280;49970;54.976;73.248;2024-01-27T01:06:30;101080.31;;;-14.82;81.16
63819;BME280;49970;54.976;73.248;2024-01-27T01:08:56;101087.81;;;-14.85;81.24
63819;BME280;49970;54.976;73.248;2024-01-27T01:11:22;101082.81;;;-14.84;81.97
63819;BME280;49970;54.976;73.248;2024-01-27T01:13:48;101077.50;;;-14.88;81.37
63819;BME280;49970;54.976;73.248;2024-01-27T01:16:15;101077.63;;;-14.85;81.59
63819;BME280;49970;54.976;73.248;2024-01-27T01:18:41;101077.97;;;-14.77;81.93
63819;BME280;49970;54.976;73.248;2024-01-27T01:21:07;101067.66;;;-14.80;82.28
63819;BME280;49970;54.976;73.248;2024-01-27T01:23:33;101084.06;;;-14.74;81.16
63819;BME280;49970;54.976;73.248;2024-01-27T01:25:59;101087.53;;;-14.72;82.45
63819;BME280;49970;54.976;73.248;2024-01-27T01:28:25;101089.41;;;-14.68;81.67
63819;BME280;49970;54.976;73.248;2024-01-27T01:30:52;101100.44;;;-14.67;81.36
63819;BME280;49970;54.976;73.248;2024-01-27T01:33:18;101096.97;;;-14.69;81.03
63819;BME280;49970;54.976;73.248;2024-01-27T01:35:44;101089.06;;;-14.75;81.20
63819;BME280;49970;54.976;73.248;2024-01-27T01:38:11;101091.75;;;-14.72;81.63
63819;BME280;49970;54.976;73.248;2024-01-27T01:40:37;101085.78;;;-14.73;82.01
63819;BME280;49970;54.976;73.248;2024-01-27T01:43:09;101095.06;;;-14.75;81.79
63819;BME280;49970;54.976;73.248;2024-01-27T01:45:36;101099.72;;;-14.65;81.19
63819;BME280;49970;54.976;73.248;2024-01-27T01:48:02;101103.13;;;-14.64;82.29
63819;BME280;49970;54.976;73.248;2024-01-27T01:50:31;101103.97;;;-14.64;82.18
63819;BME280;49970;54.976;73.248;2024-01-27T01:52:58;101109.03;;;-14.65;81.00
63819;BME280;49970;54.976;73.248;2024-01-27T01:55:24;101100.53;;;-14.66;81.20
63819;BME280;49970;54.976;73.248;2024-01-27T01:57:51;101104.84;;;-14.63;82.30
63819;BME280;49970;54.976;73.248;2024-01-27T02:00:17;101102.25;;;-14.65;82.09
63819;BME280;49970;54.976;73.248;2024-01-27T02:02:44;101106.34;;;-14.68;82.16
63819;BME280;49970;54.976;73.248;2024-01-27T02:05:14;101116.59;;;-14.67;81.15
63819;BME280;49970;54.976;73.248;2024-01-27T02:07:40;101114.97;;;-14.65;81.11
63819;BME280;49970;54.976;73.248;2024-01-27T02:10:14;101117.38;;;-14.68;81.43
63819;BME280;49970;54.976;73.248;2024-01-27T02:12:44;101110.31;;;-14.75;81.93
63819;BME280;49970;54.976;73.248;2024-01-27T02:15:11;101111.94;;;-14.75;80.76
63819;BME280;49970;54.976;73.248;2024-01-27T02:17:41;101115.44;;;-14.73;80.85
63819;BME280;49970;54.976;73.248;2024-01-27T02:20:07;101131.41;;;-14.76;82.07
63819;BME280;49970;54.976;73.248;2024-01-27T02:22:34;101137.38;;;-14.75;82.24
63819;BME280;49970;54.976;73.248;2024-01-27T02:25:02;101138.28;;;-14.75;80.85
63819;BME280;49970;54.976;73.248;2024-01-27T02:27:29;101138.84;;;-14.80;81.21
63819;BME280;49970;54.976;73.248;2024-01-27T02:29:55;101144.13;;;-14.76;82.11
63819;BME280;49970;54.976;73.248;2024-01-27T02:32:21;101149.50;;;-14.70;81.44
63819;BME280;49970;54.976;73.248;2024-01-27T02:34:47;101150.38;;;-14.69;81.09
63819;BME280;49970;54.976;73.248;2024-01-27T02:37:14;101136.19;;;-14.84;81.87
63819;BME280;49970;54.976;73.248;2024-01-27T02:39:40;101151.03;;;-14.73;81.14
63819;BME280;49970;54.976;73.248;2024-01-27T02:42:06;101148.97;;;-14.63;81.93
63819;BME280;49970;54.976;73.248;2024-01-27T02:44:32;101144.88;;;-14.59;81.44
63819;BME280;49970;54.976;73.248;2024-01-27T02:46:58;101147.69;;;-14.53;82.32
63819;BME280;49970;54.976;73.248;2024-01-27T02:49:25;101152.84;;;-14.51;81.29
63819;BME280;49970;54.976;73.248;2024-01-27T02:51:51;101147.88;;;-14.48;82.26
63819;BME280;49970;54.976;73.248;2024-01-27T02:54:17;101158.28;;;-14.42;81.40
63819;BME280;49970;54.976;73.248;2024-01-27T02:56:43;101159.97;;;-14.43;82.49
63819;BME280;49970;54.976;73.248;2024-01-27T02:59:15;101168.44;;;-14.42;82.03
63819;BME280;49970;54.976;73.248;2024-01-27T03:01:45;101163.97;;;-14.48;82.01
63819;BME280;49970;54.976;73.248;2024-01-27T03:04:12;101157.22;;;-14.47;81.56
63819;BME280;49970;54.976;73.248;2024-01-27T03:06:38;101151.25;;;-14.48;82.54
63819;BME280;49970;54.976;73.248;2024-01-27T03:09:04;101162.44;;;-14.44;81.74
63819;BME280;49970;54.976;73.248;2024-01-27T03:11:30;101158.09;;;-14.47;82.24
63819;BME280;49970;54.976;73.248;2024-01-27T03:13:57;101163.16;;;-14.48;81.47
63819;BME280;49970;54.976;73.248;2024-01-27T03:16:43;101162.31;;;-14.47;82.17
63819;BME280;49970;54.976;73.248;2024-01-27T03:19:25;101170.06;;;-14.44;82.37
63819;BME280;49970;54.976;73.248;2024-01-27T03:21:51;101165.72;;;-14.47;82.27
63819;BME280;49970;54.976;73.248;2024-01-27T03:24:17;101164.69;;;-14.52;81.34
63819;BME280;49970;54.976;73.248;2024-01-27T03:26:43;101163.56;;;-14.59;81.41
63819;BME280;49970;54.976;73.248;2024-01-27T03:29:09;101144.94;;;-14.77;81.29
63819;BME280;49970;54.976;73.248;2024-01-27T03:31:36;101166.34;;;-14.72;81.30
63819;BME280;49970;54.976;73.248;2024-01-27T03:34:02;101161.41;;;-14.69;82.04
63819;BME280;49970;54.976;73.248;2024-01-27T03:36:28;101160.53;;;-14.69;82.15
63819;BME280;49970;54.976;73.248;2024-01-27T03:38:56;101167.09;;;-14.74;82.24
63819;BME280;49970;54.976;73.248;2024-01-27T03:41:22;101168.69;;;-14.76;81.13
63819;BME280;49970;54.976;73.248;2024-01-27T03:43:49;101173.72;;;-14.78;82.01
63819;BME280;49970;54.976;73.248;2024-01-27T03:46:15;101146.78;;;-14.92;81.30
63819;BME280;49970;54.976;73.248;2024-01-27T03:48:41;101170.88;;;-14.84;81.00
63819;BME280;49970;54.976;73.248;2024-01-27T03:51:08;101164.94;;;-14.85;82.04
63819;BME280;49970;54.976;73.248;2024-01-27T03:53:34;101164.41;;;-14.77;81.37
63819;BME280;49970;54.976;73.248;2024-01-27T03:56:00;101159.19;;;-14.80;81.16
63819;BME280;49970;54.976;73.248;2024-01-27T03:58:30;101158.38;;;-14.79;81.95
63819;BME280;49970;54.976;73.248;2024-01-27T04:00:57;101169.44;;;-14.79;81.77
63819;BME280;49970;54.976;73.248;2024-01-27T04:03:23;101175.41;;;-14.78;81.32
63819;BME280;49970;54.976;73.248;2024-01-27T04:05:50;101173.56;;;-14.81;81.14
63819;BME280;49970;54.976;73.248;2024-01-27T04:08:16;101172.25;;;-14.73;81.28
63819;BME280;49970;54.976;73.248;2024-01-27T04:11:02;101178.28;;;-14.71;80.70
63819;BME280;49970;54.976;73.248;2024-01-27T04:14:29;101191.97;;;-14.67;81.32
63819;BME280;49970;54.976;73.248;2024-01-27T04:16:55;101188.66;;;-14.66;80.86
63819;BME280;49970;54.976;73.248;2024-01-27T04:19:21;101178.41;;;-14.68;80.61
63819;BME280;49970;54.976;73.248;2024-01-27T04:21:47;101189.66;;;-14.63;81.63
63819;BME280;49970;54.976;73.248;2024-01-27T04:24:13;101189.00;;;-14.59;80.56
63819;BME280;49970;54.976;73.248;2024-01-27T04:26:59;101168.38;;;-14.65;81.55
63819;BME280;49970;54.976;73.248;2024-01-27T04:29:28;101185.75;;;-14.54;80.70
63819;BME280;49970;54.976;73.248;2024-01-27T04:31:55;101197.91;;;-14.47;81.84
63819;BME280;49970;54.976;73.248;2024-01-27T04:34:21;101181.38;;;-14.59;81.20
63819;BME280;49970;54.976;73.248;2024-01-27T04:36:47;101192.25;;;-14.42;81.15
63819;BME280;49970;54.976;73.248;2024-01-27T04:39:13;101190.69;;;-14.38;81.07
63819;BME280;49970;54.976;73.248;2024-01-27T04:41:42;101209.59;;;-14.33;80.29
63819;BME280;49970;54.976;73.248;2024-01-27T04:44:10;101179.22;;;-14.49;80.52
63819;BME280;49970;54.976;73.248;2024-01-27T04:51:21;101211.75;;;-14.21;80.21
63819;BME280;49970;54.976;73.248;2024-01-27T04:53:47;101206.09;;;-14.16;80.72
63819;BME280;49970;54.976;73.248;2024-01-27T04:56:13;101220.00;;;-14.08;80.26
63819;BME280;49970;54.976;73.248;2024-01-27T04:58:39;101227.84;;;-14.03;80.54
63819;BME280;49970;54.976;73.248;2024-01-27T05:01:06;101232.97;;;-14.01;80.85
63819;BME280;49970;54.976;73.248;2024-01-27T05:03:32;101223.66;;;-14.01;80.81
63819;BME280;49970;54.976;73.248;2024-01-27T05:05:59;101236.59;;;-13.96;80.55
63819;BME280;49970;54.976;73.248;2024-01-27T05:08:25;101235.63;;;-14.00;80.29
63819;BME280;49970;54.976;73.248;2024-01-27T05:10:51;101239.13;;;-13.96;80.41
63819;BME280;49970;54.976;73.248;2024-01-27T05:13:27;101244.41;;;-13.92;80.63
63819;BME280;49970;54.976;73.248;2024-01-27T05:15:53;101248.63;;;-13.92;80.75
63819;BME280;49970;54.976;73.248;2024-01-27T05:18:19;101249.59;;;-13.90;81.49
63819;BME280;49970;54.976;73.248;2024-01-27T05:20:45;101245.38;;;-13.90;81.29
63819;BME280;49970;54.976;73.248;2024-01-27T05:23:12;101251.38;;;-13.88;80.73
63819;BME280;49970;54.976;73.248;2024-01-27T05:25:38;101249.09;;;-13.82;81.59
63819;BME280;49970;54.976;73.248;2024-01-27T05:28:05;101241.41;;;-13.83;81.29
63819;BME280;49970;54.976;73.248;2024-01-27T05:30:31;101260.50;;;-13.73;81.53
63819;BME280;49970;54.976;73.248;2024-01-27T05:32:57;101257.66;;;-13.79;80.84
63819;BME280;49970;54.976;73.248;2024-01-27T05:35:23;101260.50;;;-13.73;80.28
63819;BME280;49970;54.976;73.248;2024-01-27T05:37:50;101269.13;;;-13.70;80.95
63819;BME280;49970;54.976;73.248;2024-01-27T05:40:17;101265.78;;;-13.69;80.57
63819;BME280;49970;54.976;73.248;2024-01-27T05:42:44;101246.03;;;-13.74;81.21
63819;BME280;49970;54.976;73.248;2024-01-27T05:45:11;101264.41;;;-13.61;80.75
63819;BME280;49970;54.976;73.248;2024-01-27T05:47:38;101271.38;;;-13.57;80.85
63819;BME280;49970;54.976;73.248;2024-01-27T05:50:05;101263.94;;;-13.52;81.60
63819;BME280;49970;54.976;73.248;2024-01-27T05:52:37;101269.88;;;-13.51;81.27
63819;BME280;49970;54.976;73.248;2024-01-27T05:55:06;101269.88;;;-13.51;81.12
63819;BME280;49970;54.976;73.248;2024-01-27T05:57:33;101262.38;;;-13.48;79.71
63819;BME280;49970;54.976;73.248;2024-01-27T05:59:59;101252.91;;;-13.51;80.13
63819;BME280;49970;54.976;73.248;2024-01-27T06:02:26;101274.84;;;-13.34;81.05
63819;BME280;49970;54.976;73.248;2024-01-27T06:04:52;101263.94;;;-13.31;79.82
63819;BME280;49970;54.976;73.248;2024-01-27T06:07:18;101276.81;;;-13.28;80.47
63819;BME280;49970;54.976;73.248;2024-01-27T06:09:44;101269.06;;;-13.29;79.71
63819;BME280;49970;54.976;73.248;2024-01-27T06:12:11;101257.09;;;-13.32;79.73
63819;BME280;49970;54.976;73.248;2024-01-27T06:14:37;101270.06;;;-13.26;80.01
63819;BME280;49970;54.976;73.248;2024-01-27T06:17:06;101274.06;;;-13.33;81.01
63819;BME280;49970;54.976;73.248;2024-01-27T06:19:32;101257.22;;;-13.29;79.53
63819;BME280;49970;54.976;73.248;2024-01-27T06:21:58;101262.44;;;-13.26;80.45
63819;BME280;49970;54.976;73.248;2024-01-27T06:24:24;101267.47;;;-13.27;80.44
63819;BME280;49970;54.976;73.248;2024-01-27T06:26:51;101262.66;;;-13.20;80.97
63819;BME280;49970;54.976;73.248;2024-01-27T06:29:17;101254.78;;;-13.26;80.00
63819;BME280;49970;54.976;73.248;2024-01-27T06:31:44;101257.47;;;-13.21;81.03
63819;BME280;49970;54.976;73.248;2024-01-27T06:34:10;101274.25;;;-13.28;80.97
63819;BME280;49970;54.976;73.248;2024-01-27T06:36:37;101263.88;;;-13.33;79.45
63819;BME280;49970;54.976;73.248;2024-01-27T06:39:03;101252.56;;;-13.39;79.38
63819;BME280;49970;54.976;73.248;2024-01-27T06:41:29;101264.09;;;-13.26;80.11
63819;BME280;49970;54.976;73.248;2024-01-27T06:43:55;101265.13;;;-13.21;80.33
63819;BME280;49970;54.976;73.248;2024-01-27T06:46:21;101253.88;;;-13.28;80.68
63819;BME280;49970;54.976;73.248;2024-01-27T06:48:48;101271.09;;;-13.21;79.94
63819;BME280;49970;54.976;73.248;2024-01-27T06:51:14;101255.56;;;-13.28;80.56
63819;BME280;49970;54.976;73.248;2024-01-27T06:53:40;101242.19;;;-13.44;79.22
63819;BME280;49970;54.976;73.248;2024-01-27T06:56:07;101264.88;;;-13.29;79.42
63819;BME280;49970;54.976;73.248;2024-01-27T06:58:40;101273.63;;;-13.22;80.24
63819;BME280;49970;54.976;73.248;2024-01-27T07:01:23;101272.75;;;-13.23;80.33
63819;BME280;49970;54.976;73.248;2024-01-27T07:03:49;101277.00;;;-13.22;80.36
63819;BME280;49970;54.976;73.248;2024-01-27T07:06:15;101279.56;;;-13.22;79.13
63819;BME280;49970;54.976;73.248;2024-01-27T07:08:41;101283.91;;;-13.19;80.71
63819;BME280;49970;54.976;73.248;2024-01-27T07:11:07;101280.50;;;-13.20;78.87
63819;BME280;49970;54.976;73.248;2024-01-27T07:13:34;101257.09;;;-13.32;79.77
63819;BME280;49970;54.976;73.248;2024-01-27T07:16:00;101289.25;;;-13.13;80.71
63819;BME280;49970;54.976;73.248;2024-01-27T07:18:26;101291.88;;;-13.12;79.92
63819;BME280;49970;54.976;73.248;2024-01-27T07:20:52;101296.16;;;-13.11;79.63
63819;BME280;49970;54.976;73.248;2024-01-27T07:23:20;101296.91;;;-13.13;79.78
63819;BME280;49970;54.976;73.248;2024-01-27T07:25:46;101299.53;;;-13.12;79.26
63819;BME280;49970;54.976;73.248;2024-01-27T07:28:13;101302.13;;;-13.10;79.46
63819;BME280;49970;54.976;73.248;2024-01-27T07:30:41;101294.47;;;-13.10;79.90
63819;BME280;49970;54.976;73.248;2024-01-27T07:33:07;101303.94;;;-13.08;79.76
63819;BME280;49970;54.976;73.248;2024-01-27T07:35:34;101308.34;;;-13.03;79.26
63819;BME280;49970;54.976;73.248;2024-01-27T07:38:00;101304.13;;;-13.03;78.95
63819;BME280;49970;54.976;73.248;2024-01-27T07:40:26;101303.47;;;-12.97;80.28
63819;BME280;49970;54.976;73.248;2024-01-27T07:42:52;101302.06;;;-12.91;80.35
63819;BME280;49970;54.976;73.248;2024-01-27T07:45:18;101304.72;;;-12.88;80.40
63819;BME280;49970;54.976;73.248;2024-01-27T07:47:44;101313.19;;;-12.89;80.26
63819;BME280;49970;54.976;73.248;2024-01-27T07:50:11;101307.94;;;-12.92;80.19
63819;BME280;49970;54.976;73.248;2024-01-27T07:52:37;101312.13;;;-12.94;80.17
63819;BME280;49970;54.976;73.248;2024-01-27T07:55:04;101303.53;;;-12.96;79.21
63819;BME280;49970;54.976;73.248;2024-01-27T07:57:30;101304.34;;;-12.97;79.36
63819;BME280;49970;54.976;73.248;2024-01-27T07:59:56;101297.69;;;-12.93;79.74
63819;BME280;49970;54.976;73.248;2024-01-27T08:02:22;101301.13;;;-12.93;80.29
63819;BME280;49970;54.976;73.248;2024-01-27T08:04:49;101288.13;;;-12.99;79.95
63819;BME280;49970;54.976;73.248;2024-01-27T08:07:15;101298.75;;;-12.88;80.06
63819;BME280;49970;54.976;73.248;2024-01-27T08:09:42;101203.00;;;-13.46;80.35
63819;BME280;49970;54.976;73.248;2024-01-27T08:12:08;101303.44;;;-12.99;80.51
63819;BME280;49970;54.976;73.248;2024-01-27T08:14:34;101303.06;;;-13.08;79.12
63819;BME280;49970;54.976;73.248;2024-01-27T08:17:01;101299.75;;;-13.06;79.29
63819;BME280;49970;54.976;73.248;2024-01-27T08:19:29;101297.03;;;-13.10;79.99
63819;BME280;49970;54.976;73.248;2024-01-27T08:21:55;101298.03;;;-13.07;79.33
63819;BME280;49970;54.976;73.248;2024-01-27T08:24:21;101314.25;;;-13.05;80.29
63819;BME280;49970;54.976;73.248;2024-01-27T08:26:50;101308.41;;;-13.02;79.14
63819;BME280;49970;54.976;73.248;2024-01-27T08:29:16;101312.75;;;-12.99;79.89
63819;BME280;49970;54.976;73.248;2024-01-27T08:31:43;101310.91;;;-13.03;79.89
63819;BME280;49970;54.976;73.248;2024-01-27T08:34:09;101313.38;;;-13.05;78.40
63819;BME280;49970;54.976;73.248;2024-01-27T08:36:38;101309.59;;;-13.15;78.90
63819;BME280;49970;54.976;73.248;2024-01-27T08:39:04;101313.75;;;-13.17;78.78
63819;BME280;49970;54.976;73.248;2024-01-27T08:41:34;101317.19;;;-13.16;79.98
63819;BME280;49970;54.976;73.248;2024-01-27T08:44:00;101312.19;;;-13.13;79.85
63819;BME280;49970;54.976;73.248;2024-01-27T08:46:26;101307.69;;;-13.20;79.59
63819;BME280;49970;54.976;73.248;2024-01-27T08:48:52;101320.72;;;-13.13;78.57
63819;BME280;49970;54.976;73.248;2024-01-27T08:51:18;101324.75;;;-13.18;79.93
63819;BME280;49970;54.976;73.248;2024-01-27T08:53:45;101321.06;;;-13.26;78.76
63819;BME280;49970;54.976;73.248;2024-01-27T08:56:40;101343.25;;;-13.23;78.17
63819;BME280;49970;54.976;73.248;2024-01-27T08:59:52;101341.00;;;-13.37;79.58
63819;BME280;49970;54.976;73.248;2024-01-27T09:02:18;101339.25;;;-13.38;79.76
63819;BME280;49970;54.976;73.248;2024-01-27T09:04:44;101344.16;;;-13.42;78.38
63819;BME280;49970;54.976;73.248;2024-01-27T09:07:11;101343.47;;;-13.38;78.90
63819;BME280;49970;54.976;73.248;2024-01-27T09:09:37;101352.00;;;-13.38;78.52
63819;BME280;49970;54.976;73.248;2024-01-27T09:12:06;101352.81;;;-13.39;79.09
63819;BME280;49970;54.976;73.248;2024-01-27T09:14:33;101349.53;;;-13.36;78.31
63819;BME280;49970;54.976;73.248;2024-01-27T09:17:02;101348.56;;;-13.38;78.13
63819;BME280;49970;54.976;73.248;2024-01-27T09:19:28;101355.31;;;-13.40;79.25
63819;BME280;49970;54.976;73.248;2024-01-27T09:21:54;101341.56;;;-13.44;79.33
63819;BME280;49970;54.976;73.248;2024-01-27T09:24:21;101341.38;;;-13.48;79.33
63819;BME280;49970;54.976;73.248;2024-01-27T09:26:47;101348.31;;;-13.44;78.11
63819;BME280;49970;54.976;73.248;2024-01-27T09:29:13;101351.69;;;-13.45;78.45
63819;BME280;49970;54.976;73.248;2024-01-27T09:31:39;101341.41;;;-13.47;79.72
63819;BME280;49970;54.976;73.248;2024-01-27T09:34:06;101352.59;;;-13.43;78.16
63819;BME280;49970;54.976;73.248;2024-01-27T09:36:32;101336.22;;;-13.50;78.30
63819;BME280;49970;54.976;73.248;2024-01-27T09:38:58;101365.34;;;-13.43;78.49
63819;BME280;49970;54.976;73.248;2024-01-27T09:41:28;101363.34;;;-13.50;77.92
63819;BME280;49970;54.976;73.248;2024-01-27T09:43:59;101362.38;;;-13.54;79.46
63819;BME280;49970;54.976;73.248;2024-01-27T09:46:27;101370.00;;;-13.54;79.08
63819;BME280;49970;54.976;73.248;2024-01-27T09:49:01;101364.78;;;-13.57;79.87
63819;BME280;49970;54.976;73.248;2024-01-27T09:51:28;101364.00;;;-13.54;79.09
63819;BME280;49970;54.976;73.248;2024-01-27T09:53:55;101371.47;;;-13.59;78.91
63819;BME280;49970;54.976;73.248;2024-01-27T09:56:24;101368.91;;;-13.59;78.87
63819;BME280;49970;54.976;73.248;2024-01-27T09:58:50;101371.25;;;-13.64;78.97
63819;BME280;49970;54.976;73.248;2024-01-27T10:01:21;101366.94;;;-13.66;78.55
63819;BME280;49970;54.976;73.248;2024-01-27T10:03:51;101360.94;;;-13.67;78.86
63819;BME280;49970;54.976;73.248;2024-01-27T10:06:17;101366.31;;;-13.61;78.95
63819;BME280;49970;54.976;73.248;2024-01-27T10:08:56;101375.69;;;-13.60;78.80
63819;BME280;49970;54.976;73.248;2024-01-27T10:11:23;101370.25;;;-13.67;77.92
63819;BME280;49970;54.976;73.248;2024-01-27T10:13:55;101382.13;;;-13.68;78.99
63819;BME280;49970;54.976;73.248;2024-01-27T10:16:21;101378.56;;;-13.71;78.91
63819;BME280;49970;54.976;73.248;2024-01-27T10:18:59;101381.97;;;-13.71;78.83
63819;BME280;49970;54.976;73.248;2024-01-27T10:21:25;101389.75;;;-13.68;78.12
63819;BME280;49970;54.976;73.248;2024-01-27T10:23:53;101389.03;;;-13.65;78.60
63819;BME280;49970;54.976;73.248;2024-01-27T10:26:19;101394.94;;;-13.66;79.57
63819;BME280;49970;54.976;73.248;2024-01-27T10:28:55;101394.84;;;-13.68;78.32
63819;BME280;49970;54.976;73.248;2024-01-27T10:31:30;101395.72;;;-13.67;78.78
63819;BME280;49970;54.976;73.248;2024-01-27T10:33:57;101392.47;;;-13.65;79.19
63819;BME280;49970;54.976;73.248;2024-01-27T10:36:24;101403.31;;;-13.69;78.79
63819;BME280;49970;54.976;73.248;2024-01-27T10:38:50;101404.25;;;-13.67;78.78
63819;BME280;49970;54.976;73.248;2024-01-27T10:41:22;101393.78;;;-13.73;79.14
63819;BME280;49970;54.976;73.248;2024-01-27T10:43:53;101405.00;;;-13.69;78.81
63819;BME280;49970;54.976;73.248;2024-01-27T10:46:20;101406.53;;;-13.73;78.29
63819;BME280;49970;54.976;73.248;2024-01-27T10:48:51;101399.41;;;-13.80;78.18
63819;BME280;49970;54.976;73.248;2024-01-27T10:51:30;101415.66;;;-13.78;78.64
63819;BME280;49970;54.976;73.248;2024-01-27T10:54:01;101427.38;;;-13.82;79.62
63819;BME280;49970;54.976;73.248;2024-01-27T10:56:31;101396.97;;;-13.96;78.25
63819;BME280;49970;54.976;73.248;2024-01-27T10:58:59;101413.34;;;-13.91;78.79
63819;BME280;49970;54.976;73.248;2024-01-27T11:01:26;101425.69;;;-13.81;79.56
63819;BME280;49970;54.976;73.248;2024-01-27T11:03:55;101420.38;;;-13.86;78.38
63819;BME280;49970;54.976;73.248;2024-01-27T11:06:22;101433.31;;;-13.81;78.34
63819;BME280;49970;54.976;73.248;2024-01-27T11:08:51;101439.28;;;-13.81;79.74
63819;BME280;49970;54.976;73.248;2024-01-27T11:11:18;101440.03;;;-13.83;79.22
63819;BME280;49970;54.976;73.248;2024-01-27T11:13:45;101434.00;;;-13.85;79.76
63819;BME280;49970;54.976;73.248;2024-01-27T11:16:18;101436.75;;;-13.81;79.79
63819;BME280;49970;54.976;73.248;2024-01-27T11:18:45;101417.63;;;-13.90;79.57
63819;BME280;49970;54.976;73.248;2024-01-27T11:21:15;101446.22;;;-13.78;79.80
63819;BME280;49970;54.976;73.248;2024-01-27T11:23:42;101448.75;;;-13.78;80.15
63819;BME280;49970;54.976;73.248;2024-01-27T11:26:09;101449.41;;;-13.82;80.03
63819;BME280;49970;54.976;73.248;2024-01-27T11:28:37;101445.03;;;-13.85;78.30
63819;BME280;49970;54.976;73.248;2024-01-27T11:31:06;101447.59;;;-13.85;79.56
63819;BME280;49970;54.976;73.248;2024-01-27T11:33:33;101449.22;;;-13.87;79.87
63819;BME280;49970;54.976;73.248;2024-01-27T11:36:03;101455.16;;;-13.86;78.98
63819;BME280;49970;54.976;73.248;2024-01-27T11:38:31;101459.31;;;-13.88;78.48
63819;BME280;49970;54.976;73.248;2024-01-27T11:40:59;101446.16;;;-13.97;79.88
63819;BME280;49970;54.976;73.248;2024-01-27T11:43:26;101464.19;;;-13.93;79.30
63819;BME280;49970;54.976;73.248;2024-01-27T11:45:59;101461.53;;;-13.96;79.69
63819;BME280;49970;54.976;73.248;2024-01-27T11:48:26;101474.66;;;-13.87;78.67
63819;BME280;49970;54.976;73.248;2024-01-27T11:51:10;101459.03;;;-13.94;78.96
63819;BME280;49970;54.976;73.248;2024-01-27T11:53:56;101471.97;;;-13.90;79.39
63819;BME280;49970;54.976;73.248;2024-01-27T11:57:07;101469.94;;;-13.97;78.48
63819;BME280;49970;54.976;73.248;2024-01-27T11:59:53;101469.94;;;-13.97;80.20
63819;BME280;49970;54.976;73.248;2024-01-27T12:02:19;101468.22;;;-13.98;78.66
63819;BME280;49970;54.976;73.248;2024-01-27T12:04:56;101456.78;;;-14.06;79.44
63819;BME280;49970;54.976;73.248;2024-01-27T12:07:22;101464.22;;;-14.11;79.13
63819;BME280;49970;54.976;73.248;2024-01-27T12:09:49;101469.66;;;-14.03;79.60
63819;BME280;49970;54.976;73.248;2024-01-27T12:12:16;101472.78;;;-14.09;80.05
63819;BME280;49970;54.976;73.248;2024-01-27T12:14:46;101468.28;;;-14.14;79.50
63819;BME280;49970;54.976;73.248;2024-01-27T12:17:13;101478.97;;;-14.03;78.86
63819;BME280;49970;54.976;73.248;2024-01-27T12:19:45;101490.25;;;-13.98;79.32
63819;BME280;49970;54.976;73.248;2024-01-27T12:22:31;101487.75;;;-13.97;79.54
63819;BME280;49970;54.976;73.248;2024-01-27T12:25:11;101487.56;;;-14.01;80.05
63819;BME280;49970;54.976;73.248;2024-01-27T12:27:43;101491.84;;;-14.00;78.68
63819;BME280;49970;54.976;73.248;2024-01-27T12:30:09;101477.97;;;-14.07;79.59
63819;BME280;49970;54.976;73.248;2024-01-27T12:32:36;101481.38;;;-14.07;79.11
63819;BME280;49970;54.976;73.248;2024-01-27T12:35:06;101486.63;;;-14.03;79.45
63819;BME280;49970;54.976;73.248;2024-01-27T12:37:32;101484.72;;;-14.08;79.03
63819;BME280;49970;54.976;73.248;2024-01-27T12:39:59;101507.84;;;-14.03;80.09
63819;BME280;49970;54.976;73.248;2024-01-27T12:42:25;101476.66;;;-14.17;79.67